sensor_id;sensor_type;location;lat;lon;timestamp;temperature;humidity
8114;DHT22;4099;52.684;9.918;2023-06-01T00:00:18;10.90;99.90
8114;DHT22;4099;52.684;9.918;2023-06-01T00:05:21;11.10;99.90
8114;DHT22;4099;52.684;9.918;2023-06-01T00:10:23;11.20;99.90
8114;DHT22;4099;52.684;9.918;2023-06-01T00:15:26;11.40;99.90
8114;DHT22;4099;52.684;9.918;2023-06-01T00:20:27;11.60;99.90
8114;DHT22;4099;52.684;9.918;2023-06-01T00:25:29;11.70;99.90
8114;DHT22;4099;52.684;9.918;2023-06-01T00:30:33;11.70;99.90
8114;DHT22;4099;52.684;9.918;2023-06-01T00:35:34;11.70;99.90
8114;DHT22;4099;52.684;9.918;2023-06-01T00:40:36;11.80;99.90
8114;DHT22;4099;52.684;9.918;2023-06-01T00:45:41;11.60;99.90
8114;DHT22;4099;52.684;9.918;2023-06-01T00:50:43;11.50;99.90
8114;DHT22;4099;52.684;9.918;2023-06-01T00:55:46;11.60;99.90
8114;DHT22;4099;52.684;9.918;2023-06-01T01:00:49;11.70;99.90
8114;DHT22;4099;52.684;9.918;2023-06-01T01:06:01;11.70;99.90
8114;DHT22;4099;52.684;9.918;2023-06-01T01:11:15;11.70;99.90
8114;DHT22;4099;52.684;9.918;2023-06-01T01:16:26;11.70;99.90
8114;DHT22;4099;52.684;9.918;2023-06-01T01:21:32;11.60;99.90
8114;DHT22;4099;52.684;9.918;2023-06-01T01:26:52;11.70;99.90
8114;DHT22;4099;52.684;9.918;2023-06-01T01:31:56;11.70;99.90
8114;DHT22;4099;52.684;9.918;2023-06-01T01:36:58;11.70;99.90
8114;DHT22;4099;52.684;9.918;2023-06-01T01:42:00;11.60;99.90
8114;DHT22;4099;52.684;9.918;2023-06-01T01:47:07;11.70;99.90
8114;DHT22;4099;52.684;9.918;2023-06-01T01:52:17;11.70;99.90
8114;DHT22;4099;52.684;9.918;2023-06-01T01:57:19;11.60;99.90
8114;DHT22;4099;52.684;9.918;2023-06-01T02:02:24;11.60;99.90
8114;DHT22;4099;52.684;9.918;2023-06-01T02:07:27;11.50;99.90
8114;DHT22;4099;52.684;9.918;2023-06-01T02:12:28;11.40;99.90
8114;DHT22;4099;52.684;9.918;2023-06-01T02:17:32;11.40;99.90
8114;DHT22;4099;52.684;9.918;2023-06-01T02:22:38;11.50;99.90
8114;DHT22;4099;52.684;9.918;2023-06-01T02:27:42;11.40;99.90
8114;DHT22;4099;52.684;9.918;2023-06-01T02:32:45;11.20;99.90
8114;DHT22;4099;52.684;9.918;2023-06-01T02:37:49;11.30;99.90
8114;DHT22;4099;52.684;9.918;2023-06-01T02:42:51;11.40;99.90
8114;DHT22;4099;52.684;9.918;2023-06-01T02:47:55;11.40;99.90
8114;DHT22;4099;52.684;9.918;2023-06-01T02:52:57;11.30;99.90
8114;DHT22;4099;52.684;9.918;2023-06-01T02:57:58;11.40;99.90
8114;DHT22;4099;52.684;9.918;2023-06-01T03:03:03;11.50;99.90
8114;DHT22;4099;52.684;9.918;2023-06-01T03:08:05;11.50;99.90
8114;DHT22;4099;52.684;9.918;2023-06-01T03:13:07;11.60;99.90
8114;DHT22;4099;52.684;9.918;2023-06-01T03:18:10;11.60;99.90
8114;DHT22;4099;52.684;9.918;2023-06-01T03:23:12;11.50;99.90
8114;DHT22;4099;52.684;9.918;2023-06-01T03:28:14;11.40;99.90
8114;DHT22;4099;52.684;9.918;2023-06-01T03:33:18;11.30;99.90
8114;DHT22;4099;52.684;9.918;2023-06-01T03:38:21;11.30;99.90
8114;DHT22;4099;52.684;9.918;2023-06-01T03:43:23;11.40;99.90
8114;DHT22;4099;52.684;9.918;2023-06-01T03:48:26;11.40;99.90
8114;DHT22;4099;52.684;9.918;2023-06-01T03:53:28;11.50;99.90
8114;DHT22;4099;52.684;9.918;2023-06-01T03:58:32;11.50;99.90
8114;DHT22;4099;52.684;9.918;2023-06-01T04:03:35;11.40;99.90
8114;DHT22;4099;52.684;9.918;2023-06-01T04:08:37;11.50;99.90
8114;DHT22;4099;52.684;9.918;2023-06-01T04:13:42;11.60;99.90
8114;DHT22;4099;52.684;9.918;2023-06-01T04:18:46;11.60;99.90
8114;DHT22;4099;52.684;9.918;2023-06-01T04:23:54;11.50;99.90
8114;DHT22;4099;52.684;9.918;2023-06-01T04:28:56;11.60;99.90
8114;DHT22;4099;52.684;9.918;2023-06-01T04:33:59;11.70;99.90
8114;DHT22;4099;52.684;9.918;2023-06-01T04:39:03;11.80;99.90
8114;DHT22;4099;52.684;9.918;2023-06-01T04:44:04;11.80;99.90
8114;DHT22;4099;52.684;9.918;2023-06-01T04:49:08;11.80;99.90
8114;DHT22;4099;52.684;9.918;2023-06-01T04:54:12;11.70;99.90
8114;DHT22;4099;52.684;9.918;2023-06-01T04:59:15;11.70;99.90
8114;DHT22;4099;52.684;9.918;2023-06-01T05:04:19;11.70;99.90
8114;DHT22;4099;52.684;9.918;2023-06-01T05:09:21;12.00;99.90
8114;DHT22;4099;52.684;9.918;2023-06-01T05:14:23;12.10;99.90
8114;DHT22;4099;52.684;9.918;2023-06-01T05:19:27;12.10;99.90
8114;DHT22;4099;52.684;9.918;2023-06-01T05:24:29;12.10;99.90
8114;DHT22;4099;52.684;9.918;2023-06-01T05:29:31;12.30;99.90
8114;DHT22;4099;52.684;9.918;2023-06-01T05:34:35;12.20;99.90
8114;DHT22;4099;52.684;9.918;2023-06-01T05:39:37;12.30;99.90
8114;DHT22;4099;52.684;9.918;2023-06-01T05:44:39;12.30;99.90
8114;DHT22;4099;52.684;9.918;2023-06-01T05:49:42;12.30;99.90
8114;DHT22;4099;52.684;9.918;2023-06-01T05:54:44;12.40;99.90
8114;DHT22;4099;52.684;9.918;2023-06-01T05:59:46;12.60;99.90
8114;DHT22;4099;52.684;9.918;2023-06-01T06:04:49;12.60;99.90
8114;DHT22;4099;52.684;9.918;2023-06-01T06:09:51;12.60;99.90
8114;DHT22;4099;52.684;9.918;2023-06-01T06:14:53;12.70;99.90
8114;DHT22;4099;52.684;9.918;2023-06-01T06:19:56;12.70;99.90
8114;DHT22;4099;52.684;9.918;2023-06-01T06:24:58;12.70;99.90
8114;DHT22;4099;52.684;9.918;2023-06-01T06:30:03;12.60;99.90
8114;DHT22;4099;52.684;9.918;2023-06-01T06:35:07;12.70;99.90
8114;DHT22;4099;52.684;9.918;2023-06-01T06:40:13;12.90;99.90
8114;DHT22;4099;52.684;9.918;2023-06-01T06:45:15;12.90;99.90
8114;DHT22;4099;52.684;9.918;2023-06-01T06:50:18;13.20;99.90
8114;DHT22;4099;52.684;9.918;2023-06-01T06:55:20;13.10;99.90
8114;DHT22;4099;52.684;9.918;2023-06-01T07:00:22;13.10;99.90
8114;DHT22;4099;52.684;9.918;2023-06-01T07:05:25;13.00;99.90
8114;DHT22;4099;52.684;9.918;2023-06-01T07:10:27;13.30;99.90
8114;DHT22;4099;52.684;9.918;2023-06-01T07:15:30;13.50;99.90
8114;DHT22;4099;52.684;9.918;2023-06-01T07:20:33;13.40;99.90
8114;DHT22;4099;52.684;9.918;2023-06-01T07:25:34;13.60;99.90
8114;DHT22;4099;52.684;9.918;2023-06-01T07:30:37;13.70;99.90
8114;DHT22;4099;52.684;9.918;2023-06-01T07:35:40;13.60;99.90
8114;DHT22;4099;52.684;9.918;2023-06-01T07:40:42;13.60;99.90
8114;DHT22;4099;52.684;9.918;2023-06-01T07:45:43;13.70;99.90
8114;DHT22;4099;52.684;9.918;2023-06-01T07:50:46;13.90;99.90
8114;DHT22;4099;52.684;9.918;2023-06-01T07:55:48;14.00;99.90
8114;DHT22;4099;52.684;9.918;2023-06-01T08:00:50;14.40;99.90
8114;DHT22;4099;52.684;9.918;2023-06-01T08:05:54;14.40;99.90
8114;DHT22;4099;52.684;9.918;2023-06-01T08:10:57;14.50;99.90
8114;DHT22;4099;52.684;9.918;2023-06-01T08:15:59;14.50;99.90
8114;DHT22;4099;52.684;9.918;2023-06-01T08:21:02;15.20;99.90
8114;DHT22;4099;52.684;9.918;2023-06-01T08:26:05;15.20;99.90
8114;DHT22;4099;52.684;9.918;2023-06-01T08:31:07;15.10;99.90
8114;DHT22;4099;52.684;9.918;2023-06-01T08:36:10;15.00;99.90
8114;DHT22;4099;52.684;9.918;2023-06-01T08:41:17;15.30;99.90
8114;DHT22;4099;52.684;9.918;2023-06-01T08:46:22;15.40;99.90
8114;DHT22;4099;52.684;9.918;2023-06-01T08:51:26;15.50;99.90
8114;DHT22;4099;52.684;9.918;2023-06-01T08:56:27;15.60;99.90
8114;DHT22;4099;52.684;9.918;2023-06-01T09:01:29;15.80;99.90
8114;DHT22;4099;52.684;9.918;2023-06-01T09:06:33;16.10;99.90
8114;DHT22;4099;52.684;9.918;2023-06-01T09:11:35;15.90;99.90
8114;DHT22;4099;52.684;9.918;2023-06-01T09:16:37;15.50;99.90
8114;DHT22;4099;52.684;9.918;2023-06-01T09:21:41;15.60;99.90
8114;DHT22;4099;52.684;9.918;2023-06-01T09:26:59;15.90;99.90
8114;DHT22;4099;52.684;9.918;2023-06-01T09:32:01;15.80;99.90
8114;DHT22;4099;52.684;9.918;2023-06-01T09:37:06;16.00;99.90
8114;DHT22;4099;52.684;9.918;2023-06-01T09:42:09;15.90;99.90
8114;DHT22;4099;52.684;9.918;2023-06-01T09:47:12;16.10;99.90
8114;DHT22;4099;52.684;9.918;2023-06-01T09:52:16;16.20;99.90
8114;DHT22;4099;52.684;9.918;2023-06-01T09:57:23;16.30;99.90
8114;DHT22;4099;52.684;9.918;2023-06-01T10:02:25;16.10;99.90
8114;DHT22;4099;52.684;9.918;2023-06-01T10:07:31;16.40;99.90
8114;DHT22;4099;52.684;9.918;2023-06-01T10:12:34;16.80;99.90
8114;DHT22;4099;52.684;9.918;2023-06-01T10:17:37;16.90;99.90
8114;DHT22;4099;52.684;9.918;2023-06-01T10:22:44;17.20;99.90
8114;DHT22;4099;52.684;9.918;2023-06-01T10:27:54;17.40;99.90
8114;DHT22;4099;52.684;9.918;2023-06-01T10:32:57;17.70;99.90
8114;DHT22;4099;52.684;9.918;2023-06-01T10:38:26;18.00;99.80
8114;DHT22;4099;52.684;9.918;2023-06-01T10:43:41;18.20;99.90
8114;DHT22;4099;52.684;9.918;2023-06-01T10:48:53;18.20;99.90
8114;DHT22;4099;52.684;9.918;2023-06-01T10:59:39;18.00;99.90
8114;DHT22;4099;52.684;9.918;2023-06-01T11:04:40;18.00;99.90
8114;DHT22;4099;52.684;9.918;2023-06-01T11:09:44;17.90;99.90
8114;DHT22;4099;52.684;9.918;2023-06-01T11:15:08;18.00;99.40
8114;DHT22;4099;52.684;9.918;2023-06-01T11:20:10;18.10;99.90
8114;DHT22;4099;52.684;9.918;2023-06-01T11:25:17;18.20;99.90
8114;DHT22;4099;52.684;9.918;2023-06-01T11:30:19;19.10;99.90
8114;DHT22;4099;52.684;9.918;2023-06-01T11:35:22;19.30;96.60
8114;DHT22;4099;52.684;9.918;2023-06-01T11:40:28;19.50;95.70
8114;DHT22;4099;52.684;9.918;2023-06-01T11:45:30;18.90;95.50
8114;DHT22;4099;52.684;9.918;2023-06-01T11:50:32;18.60;97.40
8114;DHT22;4099;52.684;9.918;2023-06-01T11:55:48;18.50;97.50
8114;DHT22;4099;52.684;9.918;2023-06-01T12:00:50;19.10;96.40
8114;DHT22;4099;52.684;9.918;2023-06-01T12:05:52;19.00;96.50
8114;DHT22;4099;52.684;9.918;2023-06-01T12:10:55;18.60;98.30
8114;DHT22;4099;52.684;9.918;2023-06-01T12:15:57;18.70;97.30
8114;DHT22;4099;52.684;9.918;2023-06-01T12:21:08;19.00;97.10
8114;DHT22;4099;52.684;9.918;2023-06-01T12:26:11;18.60;98.30
8114;DHT22;4099;52.684;9.918;2023-06-01T12:31:15;19.70;97.00
8114;DHT22;4099;52.684;9.918;2023-06-01T12:36:31;20.20;95.70
8114;DHT22;4099;52.684;9.918;2023-06-01T12:41:34;19.60;94.10
8114;DHT22;4099;52.684;9.918;2023-06-01T12:46:37;19.70;95.30
8114;DHT22;4099;52.684;9.918;2023-06-01T12:51:38;20.00;95.20
8114;DHT22;4099;52.684;9.918;2023-06-01T12:56:42;20.30;95.30
8114;DHT22;4099;52.684;9.918;2023-06-01T13:01:43;20.70;94.10
8114;DHT22;4099;52.684;9.918;2023-06-01T13:06:45;20.80;94.30
8114;DHT22;4099;52.684;9.918;2023-06-01T13:11:48;19.70;94.70
8114;DHT22;4099;52.684;9.918;2023-06-01T13:16:50;20.20;94.30
8114;DHT22;4099;52.684;9.918;2023-06-01T13:21:52;20.00;93.30
8114;DHT22;4099;52.684;9.918;2023-06-01T13:26:56;19.60;94.10
8114;DHT22;4099;52.684;9.918;2023-06-01T13:31:57;19.60;93.90
8114;DHT22;4099;52.684;9.918;2023-06-01T13:36:59;19.70;93.50
8114;DHT22;4099;52.684;9.918;2023-06-01T13:42:02;20.20;94.40
8114;DHT22;4099;52.684;9.918;2023-06-01T13:47:06;19.90;92.90
8114;DHT22;4099;52.684;9.918;2023-06-01T13:52:08;19.70;95.20
8114;DHT22;4099;52.684;9.918;2023-06-01T13:57:12;20.00;92.50
8114;DHT22;4099;52.684;9.918;2023-06-01T14:02:14;20.40;92.70
8114;DHT22;4099;52.684;9.918;2023-06-01T14:07:16;20.00;93.60
8114;DHT22;4099;52.684;9.918;2023-06-01T14:12:19;19.50;92.90
8114;DHT22;4099;52.684;9.918;2023-06-01T14:17:21;18.60;94.10
8114;DHT22;4099;52.684;9.918;2023-06-01T14:22:23;18.50;94.50
8114;DHT22;4099;52.684;9.918;2023-06-01T14:27:26;18.10;95.00
8114;DHT22;4099;52.684;9.918;2023-06-01T14:32:27;17.90;94.80
8114;DHT22;4099;52.684;9.918;2023-06-01T14:37:29;18.00;95.60
8114;DHT22;4099;52.684;9.918;2023-06-01T14:42:33;17.60;96.20
8114;DHT22;4099;52.684;9.918;2023-06-01T14:47:35;17.50;96.10
8114;DHT22;4099;52.684;9.918;2023-06-01T14:52:37;18.00;96.50
8114;DHT22;4099;52.684;9.918;2023-06-01T14:57:40;17.70;97.80
8114;DHT22;4099;52.684;9.918;2023-06-01T15:02:42;17.70;97.40
8114;DHT22;4099;52.684;9.918;2023-06-01T15:07:45;17.60;96.40
8114;DHT22;4099;52.684;9.918;2023-06-01T15:12:48;17.60;96.80
8114;DHT22;4099;52.684;9.918;2023-06-01T15:17:50;17.90;94.90
8114;DHT22;4099;52.684;9.918;2023-06-01T15:22:52;18.00;95.30
8114;DHT22;4099;52.684;9.918;2023-06-01T15:27:55;18.10;95.30
8114;DHT22;4099;52.684;9.918;2023-06-01T15:32:57;18.00;95.50
8114;DHT22;4099;52.684;9.918;2023-06-01T15:38:00;18.00;95.10
8114;DHT22;4099;52.684;9.918;2023-06-01T15:43:03;17.50;95.30
8114;DHT22;4099;52.684;9.918;2023-06-01T15:48:04;18.00;95.60
8114;DHT22;4099;52.684;9.918;2023-06-01T15:53:06;18.70;95.70
8114;DHT22;4099;52.684;9.918;2023-06-01T15:58:09;18.90;93.60
8114;DHT22;4099;52.684;9.918;2023-06-01T16:03:11;19.50;93.10
8114;DHT22;4099;52.684;9.918;2023-06-01T16:08:13;19.40;92.20
8114;DHT22;4099;52.684;9.918;2023-06-01T16:13:16;18.60;93.80
8114;DHT22;4099;52.684;9.918;2023-06-01T16:18:18;18.00;94.10
8114;DHT22;4099;52.684;9.918;2023-06-01T16:23:20;17.80;94.90
8114;DHT22;4099;52.684;9.918;2023-06-01T16:28:23;17.80;94.10
8114;DHT22;4099;52.684;9.918;2023-06-01T16:33:25;18.00;94.20
8114;DHT22;4099;52.684;9.918;2023-06-01T16:38:27;18.50;94.30
8114;DHT22;4099;52.684;9.918;2023-06-01T16:43:30;21.30;91.90
8114;DHT22;4099;52.684;9.918;2023-06-01T16:48:32;21.60;90.50
8114;DHT22;4099;52.684;9.918;2023-06-01T16:53:34;22.60;88.60
8114;DHT22;4099;52.684;9.918;2023-06-01T16:58:37;23.20;82.80
8114;DHT22;4099;52.684;9.918;2023-06-01T17:03:39;23.40;83.40
8114;DHT22;4099;52.684;9.918;2023-06-01T17:08:40;23.60;81.00
8114;DHT22;4099;52.684;9.918;2023-06-01T17:13:44;21.80;83.70
8114;DHT22;4099;52.684;9.918;2023-06-01T17:18:45;23.20;80.70
8114;DHT22;4099;52.684;9.918;2023-06-01T17:23:47;23.20;79.00
8114;DHT22;4099;52.684;9.918;2023-06-01T17:28:51;22.40;82.20
8114;DHT22;4099;52.684;9.918;2023-06-01T17:33:52;21.10;84.00
8114;DHT22;4099;52.684;9.918;2023-06-01T17:38:54;18.90;88.40
8114;DHT22;4099;52.684;9.918;2023-06-01T17:43:57;17.20;91.20
8114;DHT22;4099;52.684;9.918;2023-06-01T17:48:59;16.50;92.90
8114;DHT22;4099;52.684;9.918;2023-06-01T17:54:01;16.00;94.40
8114;DHT22;4099;52.684;9.918;2023-06-01T17:59:04;15.60;98.10
8114;DHT22;4099;52.684;9.918;2023-06-01T18:04:06;15.20;99.10
8114;DHT22;4099;52.684;9.918;2023-06-01T18:09:08;14.90;99.90
8114;DHT22;4099;52.684;9.918;2023-06-01T18:14:11;14.80;99.90
8114;DHT22;4099;52.684;9.918;2023-06-01T18:19:13;14.70;99.90
8114;DHT22;4099;52.684;9.918;2023-06-01T18:24:15;14.50;99.90
8114;DHT22;4099;52.684;9.918;2023-06-01T18:29:18;14.20;99.90
8114;DHT22;4099;52.684;9.918;2023-06-01T18:34:20;14.10;99.90
8114;DHT22;4099;52.684;9.918;2023-06-01T18:39:22;14.10;99.90
8114;DHT22;4099;52.684;9.918;2023-06-01T18:44:25;13.90;99.90
8114;DHT22;4099;52.684;9.918;2023-06-01T18:49:27;13.70;99.90
8114;DHT22;4099;52.684;9.918;2023-06-01T18:54:28;13.30;99.90
8114;DHT22;4099;52.684;9.918;2023-06-01T18:59:34;13.00;99.90
8114;DHT22;4099;52.684;9.918;2023-06-01T19:04:38;12.80;99.90
8114;DHT22;4099;52.684;9.918;2023-06-01T19:09:40;12.70;99.90
8114;DHT22;4099;52.684;9.918;2023-06-01T19:14:43;12.70;99.90
8114;DHT22;4099;52.684;9.918;2023-06-01T19:19:45;12.50;99.90
8114;DHT22;4099;52.684;9.918;2023-06-01T19:24:47;12.40;99.90
8114;DHT22;4099;52.684;9.918;2023-06-01T19:29:50;12.30;99.90
8114;DHT22;4099;52.684;9.918;2023-06-01T19:34:52;12.00;99.90
8114;DHT22;4099;52.684;9.918;2023-06-01T19:39:54;11.90;99.90
8114;DHT22;4099;52.684;9.918;2023-06-01T19:44:58;11.80;99.90
8114;DHT22;4099;52.684;9.918;2023-06-01T19:50:01;11.80;99.90
8114;DHT22;4099;52.684;9.918;2023-06-01T19:55:04;11.70;99.90
8114;DHT22;4099;52.684;9.918;2023-06-01T20:00:09;11.70;99.90
8114;DHT22;4099;52.684;9.918;2023-06-01T20:05:12;11.60;99.90
8114;DHT22;4099;52.684;9.918;2023-06-01T20:10:15;11.50;99.90
8114;DHT22;4099;52.684;9.918;2023-06-01T20:15:23;11.50;99.90
8114;DHT22;4099;52.684;9.918;2023-06-01T20:20:28;11.50;99.90
8114;DHT22;4099;52.684;9.918;2023-06-01T20:25:32;11.50;99.90
8114;DHT22;4099;52.684;9.918;2023-06-01T20:31:00;11.50;99.90
8114;DHT22;4099;52.684;9.918;2023-06-01T20:36:05;11.60;99.90
8114;DHT22;4099;52.684;9.918;2023-06-01T20:41:12;11.60;99.90
8114;DHT22;4099;52.684;9.918;2023-06-01T20:46:19;11.50;99.90
8114;DHT22;4099;52.684;9.918;2023-06-01T20:51:29;11.60;99.90
8114;DHT22;4099;52.684;9.918;2023-06-01T20:56:34;11.60;99.90
8114;DHT22;4099;52.684;9.918;2023-06-01T21:01:39;11.50;99.90
8114;DHT22;4099;52.684;9.918;2023-06-01T21:06:41;11.60;99.90
8114;DHT22;4099;52.684;9.918;2023-06-01T21:11:44;11.50;99.90
8114;DHT22;4099;52.684;9.918;2023-06-01T21:16:49;11.40;99.90
8114;DHT22;4099;52.684;9.918;2023-06-01T21:21:50;11.20;99.90
8114;DHT22;4099;52.684;9.918;2023-06-01T21:26:52;11.10;99.90
8114;DHT22;4099;52.684;9.918;2023-06-01T21:31:57;11.00;99.90
8114;DHT22;4099;52.684;9.918;2023-06-01T21:36:59;11.10;99.90
8114;DHT22;4099;52.684;9.918;2023-06-01T21:42:01;11.20;99.90
8114;DHT22;4099;52.684;9.918;2023-06-01T21:47:05;11.10;99.90
8114;DHT22;4099;52.684;9.918;2023-06-01T21:52:08;11.00;99.90
8114;DHT22;4099;52.684;9.918;2023-06-01T21:57:10;11.20;99.90
8114;DHT22;4099;52.684;9.918;2023-06-01T22:02:14;11.20;99.90
8114;DHT22;4099;52.684;9.918;2023-06-01T22:07:16;11.10;99.90
8114;DHT22;4099;52.684;9.918;2023-06-01T22:12:18;11.20;99.90
8114;DHT22;4099;52.684;9.918;2023-06-01T22:17:21;11.30;99.90
8114;DHT22;4099;52.684;9.918;2023-06-01T22:22:24;11.20;99.90
8114;DHT22;4099;52.684;9.918;2023-06-01T22:27:26;11.30;99.90
8114;DHT22;4099;52.684;9.918;2023-06-01T22:32:29;11.30;99.90
8114;DHT22;4099;52.684;9.918;2023-06-01T22:37:30;11.30;99.90
8114;DHT22;4099;52.684;9.918;2023-06-01T22:42:32;11.40;99.90
8114;DHT22;4099;52.684;9.918;2023-06-01T22:47:36;11.40;99.90
8114;DHT22;4099;52.684;9.918;2023-06-01T22:52:37;11.30;99.90
8114;DHT22;4099;52.684;9.918;2023-06-01T22:57:39;11.20;99.90
8114;DHT22;4099;52.684;9.918;2023-06-01T23:02:42;11.10;99.90
8114;DHT22;4099;52.684;9.918;2023-06-01T23:07:44;11.00;99.90
8114;DHT22;4099;52.684;9.918;2023-06-01T23:12:46;11.00;99.90
8114;DHT22;4099;52.684;9.918;2023-06-01T23:17:50;10.90;99.90
8114;DHT22;4099;52.684;9.918;2023-06-01T23:22:53;10.90;99.90
8114;DHT22;4099;52.684;9.918;2023-06-01T23:27:56;10.80;99.90
8114;DHT22;4099;52.684;9.918;2023-06-01T23:32:59;10.80;99.90
8114;DHT22;4099;52.684;9.918;2023-06-01T23:38:01;10.90;99.90
8114;DHT22;4099;52.684;9.918;2023-06-01T23:43:03;10.90;99.90
8114;DHT22;4099;52.684;9.918;2023-06-01T23:48:07;10.80;99.90
8114;DHT22;4099;52.684;9.918;2023-06-01T23:53:09;10.70;99.90
8114;DHT22;4099;52.684;9.918;2023-06-01T23:58:11;10.80;99.90
